createdAt,value
2022-12-15T00:00:54.232Z,0.00
2022-12-15T00:01:54.208Z,0.00
2022-12-15T00:02:54.277Z,0.00
2022-12-15T00:03:54.176Z,0.00
2022-12-15T00:04:54.138Z,0.00
2022-12-15T00:05:54.132Z,0.00
2022-12-15T00:06:54.173Z,0.00
2022-12-15T00:07:54.099Z,0.00
2022-12-15T00:08:54.087Z,0.00
2022-12-15T00:09:54.082Z,0.00
2022-12-15T00:10:54.079Z,0.00
2022-12-15T00:11:54.054Z,0.00
2022-12-15T00:12:54.034Z,0.00
2022-12-15T00:13:54.029Z,0.00
2022-12-15T00:14:54.014Z,0.00
2022-12-15T00:15:54.213Z,0.00
2022-12-15T00:16:53.982Z,0.00
2022-12-15T00:17:53.975Z,0.00
2022-12-15T00:18:53.951Z,0.00
2022-12-15T00:19:53.945Z,0.00
2022-12-15T00:20:53.930Z,0.00
2022-12-15T00:21:53.930Z,0.00
2022-12-15T00:22:53.901Z,0.00
2022-12-15T00:23:53.895Z,0.00
2022-12-15T00:24:53.880Z,0.00
2022-12-15T00:25:53.860Z,0.00
2022-12-15T00:26:53.852Z,0.00
2022-12-15T00:27:53.833Z,0.00
2022-12-15T00:28:53.817Z,0.00
2022-12-15T00:29:53.811Z,0.00
2022-12-15T00:30:58.860Z,0.00
2022-12-15T00:31:53.875Z,0.00
2022-12-15T00:32:53.770Z,0.00
2022-12-15T00:33:53.765Z,0.00
2022-12-15T00:34:53.753Z,0.00
2022-12-15T00:35:53.732Z,0.00
2022-12-15T00:36:53.710Z,0.00
2022-12-15T00:37:53.734Z,0.00
2022-12-15T00:38:53.698Z,0.00
2022-12-15T00:39:53.680Z,0.00
2022-12-15T00:40:53.664Z,0.00
2022-12-15T00:41:53.660Z,0.00
2022-12-15T00:42:53.640Z,0.00
2022-12-15T00:43:53.633Z,0.00
2022-12-15T00:44:53.613Z,0.00
2022-12-15T00:45:53.602Z,0.00
2022-12-15T00:46:53.642Z,0.00
2022-12-15T00:47:53.574Z,0.00
2022-12-15T00:48:53.551Z,0.00
2022-12-15T00:49:53.567Z,0.00
2022-12-15T00:50:53.541Z,0.00
2022-12-15T00:51:53.524Z,0.00
2022-12-15T00:52:53.496Z,0.00
2022-12-15T00:53:53.486Z,0.00
2022-12-15T00:54:53.477Z,0.00
2022-12-15T00:55:53.468Z,0.00
2022-12-15T00:56:53.459Z,0.00
2022-12-15T00:57:53.434Z,0.00
2022-12-15T00:58:53.425Z,0.00
2022-12-15T00:59:53.421Z,0.00
2022-12-15T01:00:53.406Z,0.00
2022-12-15T01:01:53.498Z,0.00
2022-12-15T01:02:53.589Z,0.00
2022-12-15T01:03:53.463Z,0.00
2022-12-15T01:04:53.348Z,0.00
2022-12-15T01:05:53.334Z,0.00
2022-12-15T01:06:53.326Z,0.00
2022-12-15T01:07:53.317Z,0.00
2022-12-15T01:08:53.305Z,0.00
2022-12-15T01:09:53.278Z,0.00
2022-12-15T01:10:53.278Z,0.00
2022-12-15T01:11:53.261Z,0.00
2022-12-15T01:12:53.242Z,0.00
2022-12-15T01:13:53.225Z,0.00
2022-12-15T01:14:53.208Z,0.00
2022-12-15T01:15:53.277Z,0.00
2022-12-15T01:16:53.185Z,0.00
2022-12-15T01:17:53.176Z,0.00
2022-12-15T01:18:53.158Z,0.00
2022-12-15T01:19:53.177Z,0.00
2022-12-15T01:20:53.135Z,0.00
2022-12-15T01:21:53.127Z,0.00
2022-12-15T01:22:53.121Z,0.00
2022-12-15T01:23:53.098Z,0.00
2022-12-15T01:24:53.098Z,0.00
2022-12-15T01:25:53.059Z,0.00
2022-12-15T01:26:53.053Z,0.00
2022-12-15T01:27:53.045Z,0.00
2022-12-15T01:28:53.011Z,0.00
2022-12-15T01:29:53.003Z,0.00
2022-12-15T01:30:53.007Z,0.00
2022-12-15T01:31:53.080Z,0.00
2022-12-15T01:32:52.964Z,0.00
2022-12-15T01:33:52.950Z,0.00
2022-12-15T01:34:52.937Z,0.00
2022-12-15T01:35:52.927Z,0.00
2022-12-15T01:36:52.921Z,0.00
2022-12-15T01:37:52.909Z,0.00
2022-12-15T01:38:54.500Z,0.00
2022-12-15T01:39:52.949Z,0.00
2022-12-15T01:40:52.859Z,0.00
2022-12-15T01:41:52.873Z,0.00
2022-12-15T01:42:52.831Z,0.00
2022-12-15T01:43:52.828Z,0.00
2022-12-15T01:44:52.804Z,0.00
2022-12-15T01:45:52.793Z,0.00
2022-12-15T01:46:52.877Z,0.00
2022-12-15T01:47:52.775Z,0.00
2022-12-15T01:48:52.803Z,0.00
2022-12-15T01:49:52.742Z,0.00
2022-12-15T01:50:52.738Z,0.00
2022-12-15T01:51:52.725Z,0.00
2022-12-15T01:52:52.714Z,0.00
2022-12-15T01:53:52.689Z,0.00
2022-12-15T01:54:52.686Z,0.00
2022-12-15T01:55:52.655Z,0.00
2022-12-15T01:56:52.642Z,0.00
2022-12-15T01:57:52.648Z,0.00
2022-12-15T01:58:52.619Z,0.00
2022-12-15T01:59:52.610Z,0.00
2022-12-15T02:00:52.648Z,0.00
2022-12-15T02:01:52.691Z,0.00
2022-12-15T02:02:52.667Z,0.00
2022-12-15T02:03:52.581Z,0.00
2022-12-15T02:04:52.535Z,0.00
2022-12-15T02:05:52.535Z,0.00
2022-12-15T02:06:52.522Z,0.00
2022-12-15T02:07:52.512Z,0.00
2022-12-15T02:08:52.491Z,0.00
2022-12-15T02:09:52.473Z,0.00
2022-12-15T02:10:52.450Z,0.00
2022-12-15T02:11:52.467Z,0.00
2022-12-15T02:12:52.461Z,0.00
2022-12-15T02:13:52.452Z,0.00
2022-12-15T02:14:52.417Z,0.00
2022-12-15T02:15:52.487Z,0.00
2022-12-15T02:16:52.377Z,0.00
2022-12-15T02:17:52.368Z,0.00
2022-12-15T02:18:52.377Z,0.00
2022-12-15T02:19:52.348Z,0.00
2022-12-15T02:20:52.317Z,0.00
2022-12-15T02:21:52.374Z,0.00
2022-12-15T02:22:52.294Z,0.00
2022-12-15T02:23:52.329Z,0.00
2022-12-15T02:24:52.265Z,0.00
2022-12-15T02:25:52.263Z,0.00
2022-12-15T02:26:52.245Z,0.00
2022-12-15T02:27:52.233Z,0.00
2022-12-15T02:28:52.212Z,0.00
2022-12-15T02:29:52.207Z,0.00
2022-12-15T02:30:52.188Z,0.00
2022-12-15T02:31:52.321Z,0.00
2022-12-15T02:32:52.171Z,0.00
2022-12-15T02:33:52.144Z,0.00
2022-12-15T02:34:52.161Z,0.00
2022-12-15T02:35:52.114Z,0.00
2022-12-15T02:36:52.101Z,0.00
2022-12-15T02:37:52.096Z,0.00
2022-12-15T02:38:52.077Z,0.00
2022-12-15T02:39:52.103Z,0.00
2022-12-15T02:40:52.055Z,0.00
2022-12-15T02:41:52.046Z,0.00
2022-12-15T02:42:52.039Z,0.00
2022-12-15T02:43:52.016Z,0.00
2022-12-15T02:44:51.997Z,0.00
2022-12-15T02:45:52.034Z,0.00
2022-12-15T02:46:51.968Z,0.00
2022-12-15T02:47:51.974Z,0.00
2022-12-15T02:48:51.964Z,0.00
2022-12-15T02:49:51.933Z,0.00
2022-12-15T02:50:51.917Z,0.00
2022-12-15T02:51:51.892Z,0.00
2022-12-15T02:52:51.896Z,0.00
2022-12-15T02:53:51.871Z,0.00
2022-12-15T02:54:51.884Z,0.00
2022-12-15T02:55:51.845Z,0.00
2022-12-15T02:56:51.829Z,0.00
2022-12-15T02:57:51.832Z,0.00
2022-12-15T02:58:51.815Z,0.00
2022-12-15T02:59:51.800Z,0.00
2022-12-15T03:00:51.830Z,0.00
2022-12-15T03:01:52.083Z,0.00
2022-12-15T03:02:51.907Z,0.00
2022-12-15T03:03:51.754Z,0.00
2022-12-15T03:04:51.727Z,0.00
2022-12-15T03:05:51.715Z,0.00
2022-12-15T03:06:55.957Z,0.00
2022-12-15T03:07:51.685Z,0.00
2022-12-15T03:08:51.676Z,0.00
2022-12-15T03:09:51.696Z,0.00
2022-12-15T03:10:51.649Z,0.00
2022-12-15T03:11:51.646Z,0.00
2022-12-15T03:12:51.619Z,0.00
2022-12-15T03:13:51.596Z,0.00
2022-12-15T03:14:51.581Z,0.00
2022-12-15T03:15:51.592Z,0.00
2022-12-15T03:16:51.590Z,0.00
2022-12-15T03:17:51.549Z,0.00
2022-12-15T03:18:51.534Z,0.00
2022-12-15T03:19:51.517Z,0.00
2022-12-15T03:20:51.515Z,0.00
2022-12-15T03:21:51.493Z,0.00
2022-12-15T03:22:51.479Z,0.00
2022-12-15T03:23:51.476Z,0.00
2022-12-15T03:24:51.448Z,0.00
2022-12-15T03:25:51.436Z,0.00
2022-12-15T03:26:51.417Z,0.00
2022-12-15T03:27:51.419Z,0.00
2022-12-15T03:28:51.390Z,0.00
2022-12-15T03:29:51.376Z,0.00
2022-12-15T03:30:51.378Z,0.00
2022-12-15T03:31:51.418Z,0.00
2022-12-15T03:32:51.356Z,0.00
2022-12-15T03:33:51.343Z,0.00
2022-12-15T03:34:51.320Z,0.00
2022-12-15T03:35:51.304Z,0.00
2022-12-15T03:36:51.286Z,0.00
2022-12-15T03:37:51.289Z,0.00
2022-12-15T03:38:51.260Z,0.00
2022-12-15T03:39:51.240Z,0.00
2022-12-15T03:40:51.234Z,0.00
2022-12-15T03:41:51.217Z,0.00
2022-12-15T03:42:51.214Z,0.00
2022-12-15T03:43:51.218Z,0.00
2022-12-15T03:44:51.182Z,0.00
2022-12-15T03:45:51.201Z,0.00
2022-12-15T03:46:51.144Z,0.00
2022-12-15T03:47:51.155Z,0.00
2022-12-15T03:48:51.163Z,0.00
2022-12-15T03:49:51.107Z,0.00
2022-12-15T03:50:51.101Z,0.00
2022-12-15T03:51:51.074Z,0.00
2022-12-15T03:52:51.077Z,0.00
2022-12-15T03:53:51.070Z,0.00
2022-12-15T03:54:51.071Z,0.00
2022-12-15T03:55:51.017Z,0.00
2022-12-15T03:56:51.014Z,0.00
2022-12-15T03:57:51.009Z,0.00
2022-12-15T03:58:50.984Z,0.00
2022-12-15T03:59:50.974Z,0.00
2022-12-15T04:00:50.961Z,0.00
2022-12-15T04:01:51.092Z,0.00
2022-12-15T04:02:51.127Z,0.00
2022-12-15T04:03:54.311Z,0.00
2022-12-15T04:04:50.902Z,0.00
2022-12-15T04:05:50.888Z,0.00
2022-12-15T04:06:50.890Z,0.00
2022-12-15T04:07:50.859Z,0.00
2022-12-15T04:08:50.865Z,0.00
2022-12-15T04:09:50.826Z,0.00
2022-12-15T04:10:50.813Z,0.00
2022-12-15T04:11:50.810Z,0.00
2022-12-15T04:12:50.807Z,0.00
2022-12-15T04:13:50.787Z,0.00
2022-12-15T04:14:50.776Z,0.00
2022-12-15T04:15:50.756Z,0.00
2022-12-15T04:16:50.784Z,0.00
2022-12-15T04:17:50.722Z,0.00
2022-12-15T04:18:50.707Z,0.00
2022-12-15T04:19:50.692Z,0.00
2022-12-15T04:20:50.676Z,0.00
2022-12-15T04:21:50.664Z,0.00
2022-12-15T04:22:50.655Z,0.00
2022-12-15T04:23:50.647Z,0.00
2022-12-15T04:24:50.634Z,0.00
2022-12-15T04:25:50.621Z,0.00
2022-12-15T04:26:50.633Z,0.00
2022-12-15T04:27:50.584Z,0.00
2022-12-15T04:28:50.620Z,0.00
2022-12-15T04:29:50.558Z,0.00
2022-12-15T04:30:50.586Z,0.00
2022-12-15T04:31:50.538Z,0.00
2022-12-15T04:32:50.550Z,0.00
2022-12-15T04:33:50.495Z,0.00
2022-12-15T04:34:50.488Z,0.00
2022-12-15T04:35:50.512Z,0.00
2022-12-15T04:36:50.476Z,0.00
2022-12-15T04:37:50.444Z,0.00
2022-12-15T04:38:50.853Z,0.00
2022-12-15T04:39:50.439Z,0.00
2022-12-15T04:40:50.406Z,0.00
2022-12-15T04:41:50.393Z,0.00
2022-12-15T04:42:50.416Z,0.00
2022-12-15T04:43:50.362Z,0.00
2022-12-15T04:44:50.445Z,0.00
2022-12-15T04:45:50.382Z,0.00
2022-12-15T04:46:50.317Z,0.00
2022-12-15T04:47:50.314Z,0.00
2022-12-15T04:48:50.298Z,0.00
2022-12-15T04:49:50.272Z,0.00
2022-12-15T04:50:50.265Z,0.00
2022-12-15T04:51:50.246Z,0.00
2022-12-15T04:52:50.272Z,0.00
2022-12-15T04:53:50.228Z,0.00
2022-12-15T04:54:50.244Z,0.00
2022-12-15T04:55:50.202Z,0.00
2022-12-15T04:56:50.195Z,0.00
2022-12-15T04:57:50.167Z,0.00
2022-12-15T04:58:50.150Z,0.00
2022-12-15T04:59:50.128Z,0.00
2022-12-15T05:00:50.129Z,0.00
2022-12-15T05:01:50.238Z,0.00
2022-12-15T05:02:50.130Z,0.00
2022-12-15T05:03:50.092Z,0.00
2022-12-15T05:04:50.133Z,0.00
2022-12-15T05:05:50.056Z,0.00
2022-12-15T05:06:50.042Z,0.00
2022-12-15T05:07:50.033Z,0.00
2022-12-15T05:08:50.303Z,0.00
2022-12-15T05:09:49.993Z,0.00
2022-12-15T05:10:50.000Z,0.00
2022-12-15T05:11:49.973Z,4.00
2022-12-15T05:12:49.963Z,4.00
2022-12-15T05:13:49.932Z,4.00
2022-12-15T05:14:49.917Z,4.00
2022-12-15T05:15:49.969Z,4.00
2022-12-15T05:16:49.915Z,4.00
2022-12-15T05:17:49.877Z,4.00
2022-12-15T05:18:49.862Z,4.00
2022-12-15T05:19:49.855Z,4.00
2022-12-15T05:20:50.149Z,4.00
2022-12-15T05:21:49.853Z,4.00
2022-12-15T05:22:49.825Z,4.00
2022-12-15T05:23:49.787Z,4.00
2022-12-15T05:24:49.779Z,4.00
2022-12-15T05:25:49.782Z,4.00
2022-12-15T05:26:52.964Z,4.00
2022-12-15T05:27:49.758Z,0.00
2022-12-15T05:28:49.715Z,0.00
2022-12-15T05:29:49.700Z,4.00
2022-12-15T05:30:49.766Z,4.00
2022-12-15T05:31:49.672Z,4.00
2022-12-15T05:32:49.905Z,0.00
2022-12-15T05:33:49.643Z,0.00
2022-12-15T05:34:49.645Z,4.00
2022-12-15T05:35:49.712Z,4.00
2022-12-15T05:36:49.610Z,0.00
2022-12-15T05:37:49.593Z,0.00
2022-12-15T05:38:50.382Z,4.00
2022-12-15T05:39:49.575Z,4.00
2022-12-15T05:40:49.563Z,4.00
2022-12-15T05:41:49.531Z,4.00
2022-12-15T05:42:50.052Z,4.00
2022-12-15T05:43:49.510Z,4.00
2022-12-15T05:44:49.862Z,4.00
2022-12-15T05:45:49.574Z,4.00
2022-12-15T05:46:49.532Z,4.00
2022-12-15T05:47:49.460Z,4.00
2022-12-15T05:48:49.450Z,4.00
2022-12-15T05:49:49.445Z,4.00
2022-12-15T05:50:49.678Z,4.00
2022-12-15T05:51:49.390Z,4.00
2022-12-15T05:52:49.745Z,4.00
2022-12-15T05:53:49.357Z,4.00
2022-12-15T05:54:49.388Z,4.00
2022-12-15T05:55:49.336Z,4.00
2022-12-15T05:56:50.071Z,4.00
2022-12-15T05:57:49.313Z,4.00
2022-12-15T05:58:49.291Z,4.00
2022-12-15T05:59:49.283Z,4.00
2022-12-15T06:00:49.326Z,4.00
2022-12-15T06:01:49.327Z,4.00
2022-12-15T06:02:49.910Z,4.00
2022-12-15T06:03:49.224Z,4.00
2022-12-15T06:04:49.271Z,4.00
2022-12-15T06:05:54.651Z,4.00
2022-12-15T06:06:49.186Z,4.00
2022-12-15T06:07:49.168Z,4.00
2022-12-15T06:08:49.953Z,4.00
2022-12-15T06:09:49.134Z,4.00
2022-12-15T06:10:49.160Z,4.00
2022-12-15T06:11:49.104Z,4.00
2022-12-15T06:12:49.091Z,4.00
2022-12-15T06:13:49.087Z,4.00
2022-12-15T06:14:49.982Z,4.00
2022-12-15T06:15:49.085Z,4.00
2022-12-15T06:16:50.776Z,4.00
2022-12-15T06:17:49.758Z,4.00
2022-12-15T06:18:49.912Z,4.00
2022-12-15T06:19:49.005Z,4.00
2022-12-15T06:20:49.666Z,4.00
2022-12-15T06:21:48.959Z,4.00
2022-12-15T06:22:50.168Z,4.00
2022-12-15T06:23:48.942Z,0.00
2022-12-15T06:24:48.948Z,0.00
2022-12-15T06:25:48.904Z,0.00
2022-12-15T06:26:49.735Z,0.00
2022-12-15T06:27:48.888Z,0.00
2022-12-15T06:28:48.866Z,4.00
2022-12-15T06:29:48.859Z,4.00
2022-12-15T06:30:48.860Z,4.00
2022-12-15T06:31:48.885Z,4.00
2022-12-15T06:32:49.901Z,4.00
2022-12-15T06:33:48.799Z,4.00
2022-12-15T06:34:48.803Z,4.00
2022-12-15T06:35:48.756Z,8.00
2022-12-15T06:36:48.755Z,4.00
2022-12-15T06:37:48.730Z,4.00
2022-12-15T06:38:49.838Z,8.00
2022-12-15T06:39:48.762Z,8.00
2022-12-15T06:40:48.698Z,8.00
2022-12-15T06:41:48.676Z,12.00
2022-12-15T06:42:48.662Z,12.00
2022-12-15T06:43:48.668Z,16.00
2022-12-15T06:44:48.659Z,16.00
2022-12-15T06:45:49.928Z,20.00
2022-12-15T06:46:48.697Z,28.00
2022-12-15T06:47:48.600Z,28.00
2022-12-15T06:48:48.608Z,32.00
2022-12-15T06:49:48.646Z,32.00
2022-12-15T06:50:50.359Z,40.00
2022-12-15T06:51:48.540Z,44.00
2022-12-15T06:52:48.519Z,48.00
2022-12-15T06:53:48.542Z,52.00
2022-12-15T06:54:48.513Z,60.00
2022-12-15T06:55:48.527Z,68.00
2022-12-15T06:56:49.819Z,76.00
2022-12-15T06:57:48.472Z,80.00
2022-12-15T06:58:48.446Z,88.00
2022-12-15T06:59:48.451Z,100.00
2022-12-15T07:00:48.408Z,108.00
2022-12-15T07:01:48.604Z,116.00
2022-12-15T07:02:50.323Z,124.00
2022-12-15T07:03:48.694Z,136.00
2022-12-15T07:04:48.346Z,148.00
2022-12-15T07:05:48.336Z,164.00
2022-12-15T07:06:48.337Z,172.00
2022-12-15T07:07:48.311Z,188.00
2022-12-15T07:08:48.346Z,200.00
2022-12-15T07:09:48.278Z,212.00
2022-12-15T07:10:48.258Z,224.00
2022-12-15T07:11:48.260Z,240.00
2022-12-15T07:12:48.235Z,256.00
2022-12-15T07:13:48.230Z,276.00
2022-12-15T07:14:53.201Z,292.00
2022-12-15T07:15:48.210Z,304.00
2022-12-15T07:16:48.289Z,324.00
2022-12-15T07:17:48.177Z,340.00
2022-12-15T07:18:48.158Z,356.00
2022-12-15T07:19:48.136Z,376.00
2022-12-15T07:20:49.863Z,400.00
2022-12-15T07:21:48.110Z,420.00
2022-12-15T07:22:48.090Z,440.00
2022-12-15T07:23:57.069Z,464.00
2022-12-15T07:24:48.073Z,492.00
2022-12-15T07:25:48.048Z,512.00
2022-12-15T07:26:48.921Z,532.00
2022-12-15T07:27:48.031Z,556.00
2022-12-15T07:28:47.994Z,576.00
2022-12-15T07:29:47.996Z,604.00
2022-12-15T07:30:47.976Z,632.00
2022-12-15T07:31:48.083Z,660.00
2022-12-15T07:32:50.028Z,688.00
2022-12-15T07:33:47.935Z,716.00
2022-12-15T07:34:47.913Z,744.00
2022-12-15T07:35:47.908Z,768.00
2022-12-15T07:36:52.114Z,792.00
2022-12-15T07:37:47.894Z,824.00
2022-12-15T07:38:50.732Z,852.00
2022-12-15T07:39:47.847Z,884.00
2022-12-15T07:40:47.827Z,916.00
2022-12-15T07:41:47.839Z,952.00
2022-12-15T07:42:47.804Z,980.00
2022-12-15T07:43:48.172Z,1012.00
2022-12-15T07:44:49.979Z,1044.00
2022-12-15T07:45:51.453Z,1064.00
2022-12-15T07:46:47.802Z,1088.00
2022-12-15T07:47:47.744Z,1124.00
2022-12-15T07:48:50.750Z,1152.00
2022-12-15T07:49:47.716Z,1188.00
2022-12-15T07:50:47.704Z,1228.00
2022-12-15T07:51:47.690Z,1268.00
2022-12-15T07:52:47.668Z,1300.00
2022-12-15T07:53:47.690Z,1344.00
2022-12-15T07:54:47.634Z,1368.00
2022-12-15T07:56:06.324Z,1392.00
2022-12-15T07:56:50.540Z,1420.00
2022-12-15T07:57:47.593Z,1440.00
2022-12-15T07:58:47.580Z,1456.00
2022-12-15T07:59:47.565Z,1484.00
2022-12-15T08:00:49.060Z,1520.00
2022-12-15T08:01:47.765Z,1540.00
2022-12-15T08:02:47.713Z,1572.00
2022-12-15T08:03:47.587Z,1588.00
2022-12-15T08:04:48.106Z,1612.00
2022-12-15T08:05:47.483Z,1624.00
2022-12-15T08:06:47.471Z,1636.00
2022-12-15T08:07:54.671Z,1664.00
2022-12-15T08:09:51.460Z,1732.00
2022-12-15T08:10:51.418Z,1768.00
2022-12-15T08:12:55.427Z,1856.00
2022-12-15T08:14:04.510Z,1884.00
2022-12-15T08:15:59.424Z,1896.00
2022-12-15T08:16:59.390Z,1920.00
2022-12-15T08:18:52.221Z,1940.00
2022-12-15T08:19:55.748Z,1976.00
2022-12-15T08:21:56.236Z,2044.00
2022-12-15T08:22:56.177Z,2064.00
2022-12-15T08:25:00.176Z,2104.00
2022-12-15T08:26:00.116Z,2096.00
2022-12-15T08:27:53.037Z,2160.00
2022-12-15T08:28:52.989Z,2188.00
2022-12-15T08:29:53.163Z,2180.00
2022-12-15T08:30:52.981Z,2200.00
2022-12-15T08:31:53.175Z,2212.00
2022-12-15T08:32:52.932Z,2260.00
2022-12-15T08:33:52.921Z,2264.00
2022-12-15T08:34:52.900Z,2292.00
2022-12-15T08:35:57.215Z,2300.00
2022-12-15T08:36:52.875Z,2328.00
2022-12-15T08:37:52.882Z,2324.00
2022-12-15T08:38:52.860Z,2324.00
2022-12-15T08:39:52.853Z,2380.00
2022-12-15T08:40:52.840Z,2404.00
2022-12-15T08:41:52.826Z,2396.00
2022-12-15T08:42:52.790Z,2416.00
2022-12-15T08:43:52.788Z,2416.00
2022-12-15T08:44:52.764Z,2416.00
2022-12-15T08:45:52.813Z,2452.00
2022-12-15T08:46:52.747Z,2476.00
2022-12-15T08:47:52.740Z,4824.00
2022-12-15T08:48:52.704Z,8840.00
2022-12-15T08:49:52.702Z,8352.00
2022-12-15T08:50:52.675Z,7268.00
2022-12-15T08:51:52.674Z,9468.00
2022-12-15T08:53:21.417Z,13632.00
2022-12-15T08:53:52.653Z,15168.00
2022-12-15T08:54:52.645Z,15200.00
2022-12-15T08:55:52.614Z,16896.00
2022-12-15T08:56:52.603Z,19104.00
2022-12-15T08:57:52.595Z,12736.00
2022-12-15T08:58:52.578Z,8912.00
2022-12-15T08:59:52.558Z,16224.00
2022-12-15T09:00:52.623Z,23040.00
2022-12-15T09:01:52.705Z,21056.00
2022-12-15T09:02:52.626Z,18720.00
2022-12-15T09:03:52.686Z,17440.00
2022-12-15T09:04:52.548Z,17216.00
2022-12-15T09:05:52.494Z,17600.00
2022-12-15T09:06:52.471Z,18336.00
2022-12-15T09:07:52.461Z,19392.00
2022-12-15T09:08:52.468Z,19808.00
2022-12-15T09:09:52.452Z,19840.00
2022-12-15T09:10:52.761Z,14272.00
2022-12-15T09:11:52.437Z,9636.00
2022-12-15T09:12:52.424Z,8120.00
2022-12-15T09:13:52.416Z,6940.00
2022-12-15T09:14:52.393Z,8672.00
2022-12-15T09:16:09.849Z,13920.00
2022-12-15T09:16:52.431Z,12864.00
2022-12-15T09:17:52.358Z,10800.00
2022-12-15T09:18:52.373Z,12028.00
2022-12-15T09:19:52.364Z,12768.00
2022-12-15T09:20:52.334Z,9544.00
2022-12-15T09:21:52.325Z,7084.00
2022-12-15T09:22:52.341Z,6200.00
2022-12-15T09:23:52.375Z,6752.00
2022-12-15T09:24:52.291Z,8380.00
2022-12-15T09:25:52.312Z,9660.00
2022-12-15T09:26:52.270Z,11372.00
2022-12-15T09:27:52.270Z,13728.00
2022-12-15T09:28:52.251Z,13888.00
2022-12-15T09:29:52.247Z,14752.00
2022-12-15T09:30:52.318Z,12260.00
2022-12-15T09:31:52.263Z,9980.00
2022-12-15T09:32:53.055Z,10344.00
2022-12-15T09:33:52.228Z,11392.00
2022-12-15T09:34:52.187Z,13952.00
2022-12-15T09:35:52.189Z,13664.00
2022-12-15T09:36:52.169Z,15456.00
2022-12-15T09:37:52.173Z,13408.00
2022-12-15T09:38:52.158Z,9504.00
2022-12-15T09:39:52.141Z,11856.00
2022-12-15T09:40:52.205Z,11188.00
2022-12-15T09:41:52.116Z,8388.00
2022-12-15T09:43:04.906Z,10172.00
2022-12-15T09:43:52.499Z,11224.00
2022-12-15T09:44:52.096Z,10944.00
2022-12-15T09:45:52.139Z,14944.00
2022-12-15T09:46:52.067Z,18688.00
2022-12-15T09:47:52.086Z,18336.00
2022-12-15T09:48:52.045Z,16704.00
2022-12-15T09:49:52.042Z,16672.00
2022-12-15T09:50:52.025Z,17536.00
2022-12-15T09:51:52.042Z,17408.00
2022-12-15T09:52:52.007Z,11724.00
2022-12-15T09:53:55.177Z,7192.00
2022-12-15T09:54:52.012Z,6064.00
2022-12-15T09:55:51.990Z,7324.00
2022-12-15T09:56:51.980Z,10696.00
2022-12-15T09:57:51.969Z,14496.00
2022-12-15T09:58:51.986Z,15392.00
2022-12-15T09:59:51.985Z,15584.00
2022-12-15T10:00:52.611Z,13024.00
2022-12-15T10:01:51.990Z,11308.00
2022-12-15T10:02:52.092Z,10680.00
2022-12-15T10:03:52.051Z,8312.00
2022-12-15T10:04:51.895Z,6204.00
2022-12-15T10:06:14.714Z,5276.00
2022-12-15T10:06:51.880Z,6100.00
2022-12-15T10:07:51.882Z,6376.00
2022-12-15T10:08:51.947Z,5880.00
2022-12-15T10:09:51.854Z,5168.00
2022-12-15T10:10:51.841Z,4924.00
2022-12-15T10:11:51.852Z,4456.00
2022-12-15T10:13:01.157Z,4220.00
2022-12-15T10:13:51.820Z,4400.00
2022-12-15T10:14:51.810Z,4424.00
2022-12-15T10:15:51.839Z,4008.00
2022-12-15T10:16:51.799Z,3640.00
2022-12-15T10:17:51.817Z,2980.00
2022-12-15T10:18:54.781Z,2644.00
2022-12-15T10:19:51.761Z,2548.00
2022-12-15T10:20:51.742Z,2304.00
2022-12-15T10:21:51.735Z,2120.00
2022-12-15T10:22:51.717Z,1880.00
2022-12-15T10:23:51.859Z,2100.00
2022-12-15T10:25:51.708Z,2528.00
2022-12-15T10:26:51.685Z,2904.00
2022-12-15T10:27:51.686Z,2812.00
2022-12-15T10:28:51.655Z,2604.00
2022-12-15T10:29:51.665Z,2400.00
2022-12-15T10:30:51.679Z,2660.00
2022-12-15T10:31:51.624Z,2736.00
2022-12-15T10:32:51.766Z,2852.00
2022-12-15T10:33:51.597Z,3100.00
2022-12-15T10:34:51.652Z,3476.00
2022-12-15T10:35:51.572Z,3748.00
2022-12-15T10:36:51.566Z,3568.00
2022-12-15T10:37:51.561Z,3120.00
2022-12-15T10:38:51.546Z,2744.00
2022-12-15T10:39:51.535Z,2500.00
2022-12-15T10:40:51.544Z,2768.00
2022-12-15T10:41:51.503Z,2764.00
2022-12-15T10:42:51.510Z,2808.00
2022-12-15T10:43:51.489Z,3708.00
2022-12-15T10:44:51.471Z,4036.00
2022-12-15T10:45:51.520Z,3360.00
2022-12-15T10:46:51.453Z,3220.00
2022-12-15T10:47:51.443Z,3172.00
2022-12-15T10:48:51.407Z,2692.00
2022-12-15T10:49:51.408Z,2588.00
2022-12-15T10:50:51.404Z,2516.00
2022-12-15T10:51:51.378Z,2460.00
2022-12-15T10:52:51.388Z,2440.00
2022-12-15T10:53:51.373Z,2348.00
2022-12-15T10:54:51.366Z,2268.00
2022-12-15T10:55:51.351Z,2360.00
2022-12-15T10:57:01.027Z,2352.00
2022-12-15T10:58:27.047Z,2332.00
2022-12-15T10:58:51.324Z,2328.00
2022-12-15T10:59:51.294Z,2296.00
2022-12-15T11:00:51.315Z,2312.00
2022-12-15T11:01:51.467Z,2412.00
2022-12-15T11:02:51.344Z,2656.00
2022-12-15T11:03:51.398Z,3120.00
2022-12-15T11:04:51.225Z,3488.00
2022-12-15T11:05:51.208Z,3040.00
2022-12-15T11:06:51.198Z,2904.00
2022-12-15T11:07:51.182Z,2812.00
2022-12-15T11:08:51.217Z,2544.00
2022-12-15T11:09:51.167Z,2648.00
2022-12-15T11:10:51.158Z,2768.00
2022-12-15T11:11:51.150Z,2656.00
2022-12-15T11:12:51.146Z,2532.00
2022-12-15T11:13:51.106Z,2456.00
2022-12-15T11:14:51.437Z,2512.00
2022-12-15T11:15:51.251Z,2452.00
2022-12-15T11:16:51.102Z,2388.00
2022-12-15T11:17:51.057Z,2328.00
2022-12-15T11:18:51.047Z,2256.00
2022-12-15T11:19:54.009Z,2200.00
2022-12-15T11:20:51.033Z,2148.00
2022-12-15T11:21:51.049Z,2096.00
2022-12-15T11:22:50.989Z,2044.00
2022-12-15T11:23:51.002Z,1980.00
2022-12-15T11:24:50.971Z,2000.00
2022-12-15T11:25:51.246Z,2000.00
2022-12-15T11:26:50.969Z,2008.00
2022-12-15T11:27:50.998Z,2036.00
2022-12-15T11:28:50.926Z,2072.00
2022-12-15T11:29:50.904Z,2092.00
2022-12-15T11:30:50.956Z,2064.00
2022-12-15T11:31:50.904Z,2024.00
2022-12-15T11:32:50.880Z,2028.00
2022-12-15T11:33:50.858Z,2028.00
2022-12-15T11:34:50.862Z,2080.00
2022-12-15T11:35:50.828Z,2164.00
2022-12-15T11:36:50.843Z,2208.00
2022-12-15T11:37:50.904Z,2180.00
2022-12-15T11:38:51.008Z,2192.00
2022-12-15T11:39:50.804Z,2164.00
2022-12-15T11:40:50.778Z,2120.00
2022-12-15T11:41:50.893Z,2072.00
2022-12-15T11:42:50.813Z,2052.00
2022-12-15T11:43:50.855Z,2036.00
2022-12-15T11:44:50.718Z,1980.00
2022-12-15T11:45:50.707Z,1996.00
2022-12-15T11:46:50.705Z,1984.00
2022-12-15T11:47:50.995Z,1976.00
2022-12-15T11:48:50.675Z,1952.00
2022-12-15T11:49:50.660Z,1956.00
2022-12-15T11:50:51.058Z,1956.00
2022-12-15T11:51:50.644Z,1940.00
2022-12-15T11:52:50.723Z,1940.00
2022-12-15T11:53:50.649Z,2080.00
2022-12-15T11:54:50.622Z,2244.00
2022-12-15T11:55:50.589Z,2388.00
2022-12-15T11:56:50.621Z,2472.00
2022-12-15T11:57:50.616Z,2668.00
2022-12-15T11:58:50.567Z,2920.00
2022-12-15T11:59:50.541Z,2924.00
2022-12-15T12:00:50.528Z,3064.00
2022-12-15T12:01:57.102Z,3108.00
2022-12-15T12:02:50.567Z,2636.00
2022-12-15T12:03:50.525Z,2460.00
2022-12-15T12:04:50.838Z,2316.00
2022-12-15T12:05:50.471Z,2240.00
2022-12-15T12:06:50.442Z,2184.00
2022-12-15T12:07:50.451Z,2180.00
2022-12-15T12:09:50.434Z,2284.00
2022-12-15T12:10:50.461Z,2256.00
2022-12-15T12:11:50.439Z,2260.00
2022-12-15T12:12:50.605Z,2244.00
2022-12-15T12:13:50.452Z,2212.00
2022-12-15T12:14:50.741Z,2144.00
2022-12-15T12:15:50.357Z,2164.00
2022-12-15T12:16:50.342Z,2408.00
2022-12-15T12:17:50.324Z,2116.00
2022-12-15T12:18:50.662Z,2180.00
2022-12-15T12:19:50.782Z,2112.00
2022-12-15T12:20:50.394Z,2052.00
2022-12-15T12:21:51.086Z,2008.00
2022-12-15T12:22:50.666Z,1984.00
2022-12-15T12:23:50.249Z,1956.00
2022-12-15T12:24:50.811Z,1944.00
2022-12-15T12:25:50.241Z,1928.00
2022-12-15T12:26:50.324Z,1924.00
2022-12-15T12:27:50.284Z,1912.00
2022-12-15T12:28:50.318Z,1916.00
2022-12-15T12:29:50.177Z,1912.00
2022-12-15T12:30:50.412Z,1900.00
2022-12-15T12:31:50.835Z,1908.00
2022-12-15T12:32:50.415Z,1884.00
2022-12-15T12:33:50.168Z,1896.00
2022-12-15T12:34:51.125Z,1876.00
2022-12-15T12:35:50.116Z,1868.00
2022-12-15T12:36:50.113Z,1864.00
2022-12-15T12:37:50.133Z,1844.00
2022-12-15T12:38:50.832Z,1832.00
2022-12-15T12:39:50.056Z,1828.00
2022-12-15T12:40:50.317Z,1824.00
2022-12-15T12:41:50.030Z,1828.00
2022-12-15T12:42:50.044Z,1828.00
2022-12-15T12:43:50.348Z,1828.00
2022-12-15T12:44:49.996Z,1828.00
2022-12-15T12:45:50.206Z,1840.00
2022-12-15T12:46:50.617Z,1832.00
2022-12-15T12:47:50.014Z,1824.00
2022-12-15T12:48:49.958Z,1804.00
2022-12-15T12:49:50.108Z,1792.00
2022-12-15T12:50:50.657Z,1760.00
2022-12-15T12:51:49.919Z,1756.00
2022-12-15T12:52:49.909Z,1736.00